sensor_id;sensor_type;location;lat;lon;timestamp;pressure;altitude;pressure_sealevel;temperature
69186;BMP280;56298;49.246;9.410;2023-08-01T00:00:51;98395.59;;;18.17
69186;BMP280;56298;49.246;9.410;2023-08-01T00:03:17;98393.13;;;18.19
69186;BMP280;56298;49.246;9.410;2023-08-01T00:05:42;98390.34;;;18.19
69186;BMP280;56298;49.246;9.410;2023-08-01T00:08:11;98384.81;;;18.19
69186;BMP280;56298;49.246;9.410;2023-08-01T00:10:42;98385.94;;;18.21
69186;BMP280;56298;49.246;9.410;2023-08-01T00:13:08;98372.94;;;18.18
69186;BMP280;56298;49.246;9.410;2023-08-01T00:15:34;98377.28;;;18.19
69186;BMP280;56298;49.246;9.410;2023-08-01T00:17:59;98380.91;;;18.16
69186;BMP280;56298;49.246;9.410;2023-08-01T00:20:24;98376.06;;;18.20
69186;BMP280;56298;49.246;9.410;2023-08-01T00:22:50;98378.31;;;18.25
69186;BMP280;56298;49.246;9.410;2023-08-01T00:25:16;98373.91;;;18.28
69186;BMP280;56298;49.246;9.410;2023-08-01T00:27:42;98366.34;;;18.28
69186;BMP280;56298;49.246;9.410;2023-08-01T00:30:08;98360.88;;;18.25
69186;BMP280;56298;49.246;9.410;2023-08-01T00:32:34;98362.06;;;18.24
69186;BMP280;56298;49.246;9.410;2023-08-01T00:34:59;98345.09;;;18.22
69186;BMP280;56298;49.246;9.410;2023-08-01T00:37:24;98337.22;;;18.20
69186;BMP280;56298;49.246;9.410;2023-08-01T00:39:50;98338.09;;;18.17
69186;BMP280;56298;49.246;9.410;2023-08-01T00:42:15;98324.22;;;18.17
69186;BMP280;56298;49.246;9.410;2023-08-01T00:44:41;98319.53;;;18.14
69186;BMP280;56298;49.246;9.410;2023-08-01T00:47:06;98314.31;;;18.16
69186;BMP280;56298;49.246;9.410;2023-08-01T00:49:32;98309.31;;;18.11
69186;BMP280;56298;49.246;9.410;2023-08-01T00:51:57;98298.19;;;18.11
69186;BMP280;56298;49.246;9.410;2023-08-01T00:54:22;98295.00;;;18.12
69186;BMP280;56298;49.246;9.410;2023-08-01T00:56:48;98278.91;;;18.07
69186;BMP280;56298;49.246;9.410;2023-08-01T00:59:13;98279.91;;;18.13
69186;BMP280;56298;49.246;9.410;2023-08-01T01:01:38;98272.09;;;18.08
69186;BMP280;56298;49.246;9.410;2023-08-01T01:04:04;98267.53;;;18.02
69186;BMP280;56298;49.246;9.410;2023-08-01T01:06:37;98257.81;;;17.93
69186;BMP280;56298;49.246;9.410;2023-08-01T01:09:15;98252.53;;;17.99
69186;BMP280;56298;49.246;9.410;2023-08-01T01:11:40;98243.34;;;18.02
69186;BMP280;56298;49.246;9.410;2023-08-01T01:14:05;98233.72;;;18.07
69186;BMP280;56298;49.246;9.410;2023-08-01T01:16:30;98228.09;;;18.10
69186;BMP280;56298;49.246;9.410;2023-08-01T01:18:56;98228.75;;;18.14
69186;BMP280;56298;49.246;9.410;2023-08-01T01:21:21;98225.13;;;18.18
69186;BMP280;56298;49.246;9.410;2023-08-01T01:23:47;98222.00;;;18.15
69186;BMP280;56298;49.246;9.410;2023-08-01T01:26:15;98216.09;;;18.13
69186;BMP280;56298;49.246;9.410;2023-08-01T01:28:42;98217.91;;;18.20
69186;BMP280;56298;49.246;9.410;2023-08-01T01:31:08;98215.91;;;18.21
69186;BMP280;56298;49.246;9.410;2023-08-01T01:33:33;98199.69;;;18.19
69186;BMP280;56298;49.246;9.410;2023-08-01T01:36:00;98195.13;;;18.12
69186;BMP280;56298;49.246;9.410;2023-08-01T01:38:26;98199.69;;;18.19
69186;BMP280;56298;49.246;9.410;2023-08-01T01:40:51;98202.50;;;18.03
69186;BMP280;56298;49.246;9.410;2023-08-01T01:43:16;98218.25;;;17.93
69186;BMP280;56298;49.246;9.410;2023-08-01T01:45:42;98224.78;;;17.99
69186;BMP280;56298;49.246;9.410;2023-08-01T01:48:07;98216.91;;;17.97
69186;BMP280;56298;49.246;9.410;2023-08-01T01:50:32;98226.09;;;17.94
69186;BMP280;56298;49.246;9.410;2023-08-01T01:53:00;98221.69;;;17.97
69186;BMP280;56298;49.246;9.410;2023-08-01T01:55:26;98219.25;;;17.99
69186;BMP280;56298;49.246;9.410;2023-08-01T01:57:51;98209.94;;;17.93
69186;BMP280;56298;49.246;9.410;2023-08-01T02:00:16;98194.66;;;18.01
69186;BMP280;56298;49.246;9.410;2023-08-01T02:02:41;98187.44;;;18.04
69186;BMP280;56298;49.246;9.410;2023-08-01T02:05:07;98190.19;;;18.04
69186;BMP280;56298;49.246;9.410;2023-08-01T02:07:32;98193.19;;;17.96
69186;BMP280;56298;49.246;9.410;2023-08-01T02:09:59;98181.88;;;18.04
69186;BMP280;56298;49.246;9.410;2023-08-01T02:12:24;98162.81;;;18.06
69186;BMP280;56298;49.246;9.410;2023-08-01T02:14:49;98148.69;;;18.00
69186;BMP280;56298;49.246;9.410;2023-08-01T02:17:15;98150.59;;;18.03
69186;BMP280;56298;49.246;9.410;2023-08-01T02:19:41;98156.78;;;17.94
69186;BMP280;56298;49.246;9.410;2023-08-01T02:22:06;98164.75;;;17.92
69186;BMP280;56298;49.246;9.410;2023-08-01T02:24:31;98168.31;;;17.93
69186;BMP280;56298;49.246;9.410;2023-08-01T02:26:56;98164.38;;;18.07
69186;BMP280;56298;49.246;9.410;2023-08-01T02:29:22;98157.38;;;18.02
69186;BMP280;56298;49.246;9.410;2023-08-01T02:31:47;98161.03;;;18.12
69186;BMP280;56298;49.246;9.410;2023-08-01T02:34:12;98165.03;;;18.11
69186;BMP280;56298;49.246;9.410;2023-08-01T02:36:37;98142.09;;;18.10
69186;BMP280;56298;49.246;9.410;2023-08-01T02:39:05;98132.44;;;18.15
69186;BMP280;56298;49.246;9.410;2023-08-01T02:41:30;98134.09;;;18.12
69186;BMP280;56298;49.246;9.410;2023-08-01T02:43:55;98138.41;;;18.13
69186;BMP280;56298;49.246;9.410;2023-08-01T02:46:21;98132.53;;;18.11
69186;BMP280;56298;49.246;9.410;2023-08-01T02:48:46;98125.44;;;18.10
69186;BMP280;56298;49.246;9.410;2023-08-01T02:51:11;98131.66;;;18.14
69186;BMP280;56298;49.246;9.410;2023-08-01T02:53:37;98122.34;;;18.21
69186;BMP280;56298;49.246;9.410;2023-08-01T02:56:05;98123.94;;;18.22
69186;BMP280;56298;49.246;9.410;2023-08-01T02:58:32;98118.81;;;18.21
69186;BMP280;56298;49.246;9.410;2023-08-01T03:00:57;98114.13;;;18.18
69186;BMP280;56298;49.246;9.410;2023-08-01T03:03:23;98117.13;;;18.23
69186;BMP280;56298;49.246;9.410;2023-08-01T03:05:48;98122.72;;;18.36
69186;BMP280;56298;49.246;9.410;2023-08-01T03:08:13;98122.94;;;18.42
69186;BMP280;56298;49.246;9.410;2023-08-01T03:10:39;98116.16;;;18.43
69186;BMP280;56298;49.246;9.410;2023-08-01T03:13:04;98118.63;;;18.41
69186;BMP280;56298;49.246;9.410;2023-08-01T03:15:29;98117.41;;;18.42
69186;BMP280;56298;49.246;9.410;2023-08-01T03:17:54;98114.94;;;18.44
69186;BMP280;56298;49.246;9.410;2023-08-01T03:20:20;98119.75;;;18.56
69186;BMP280;56298;49.246;9.410;2023-08-01T03:22:45;98125.06;;;18.51
69186;BMP280;56298;49.246;9.410;2023-08-01T03:25:10;98115.06;;;18.53
69186;BMP280;56298;49.246;9.410;2023-08-01T03:27:36;98110.84;;;18.49
69186;BMP280;56298;49.246;9.410;2023-08-01T03:30:02;98115.06;;;18.53
69186;BMP280;56298;49.246;9.410;2023-08-01T03:32:29;98112.63;;;18.55
69186;BMP280;56298;49.246;9.410;2023-08-01T03:34:54;98106.41;;;18.51
69186;BMP280;56298;49.246;9.410;2023-08-01T03:37:19;98118.63;;;18.54
69186;BMP280;56298;49.246;9.410;2023-08-01T03:39:45;98117.63;;;18.48
69186;BMP280;56298;49.246;9.410;2023-08-01T03:42:10;98103.16;;;18.40
69186;BMP280;56298;49.246;9.410;2023-08-01T03:44:35;98106.31;;;18.42
69186;BMP280;56298;49.246;9.410;2023-08-01T03:47:01;98098.53;;;18.37
69186;BMP280;56298;49.246;9.410;2023-08-01T03:49:26;98096.31;;;18.32
69186;BMP280;56298;49.246;9.410;2023-08-01T03:51:51;98100.72;;;18.29
69186;BMP280;56298;49.246;9.410;2023-08-01T03:54:17;98078.19;;;18.27
69186;BMP280;56298;49.246;9.410;2023-08-01T03:56:42;98090.16;;;18.24
69186;BMP280;56298;49.246;9.410;2023-08-01T03:59:08;98097.72;;;18.23
69186;BMP280;56298;49.246;9.410;2023-08-01T04:01:33;98106.03;;;18.23
69186;BMP280;56298;49.246;9.410;2023-08-01T04:03:58;98107.69;;;18.21
69186;BMP280;56298;49.246;9.410;2023-08-01T04:06:24;98102.56;;;18.19
69186;BMP280;56298;49.246;9.410;2023-08-01T04:08:49;98101.38;;;18.20
69186;BMP280;56298;49.246;9.410;2023-08-01T04:11:15;98108.91;;;18.20
69186;BMP280;56298;49.246;9.410;2023-08-01T04:13:40;98102.81;;;18.25
69186;BMP280;56298;49.246;9.410;2023-08-01T04:16:05;98101.25;;;18.24
69186;BMP280;56298;49.246;9.410;2023-08-01T04:18:30;98100.81;;;18.25
69186;BMP280;56298;49.246;9.410;2023-08-01T04:20:56;98098.84;;;18.26
69186;BMP280;56298;49.246;9.410;2023-08-01T04:23:21;98108.03;;;18.23
69186;BMP280;56298;49.246;9.410;2023-08-01T04:25:46;98106.69;;;18.14
69186;BMP280;56298;49.246;9.410;2023-08-01T04:28:11;98117.44;;;18.12
69186;BMP280;56298;49.246;9.410;2023-08-01T04:30:37;98115.53;;;18.09
69186;BMP280;56298;49.246;9.410;2023-08-01T04:33:03;98111.19;;;18.08
69186;BMP280;56298;49.246;9.410;2023-08-01T04:35:29;98099.00;;;18.06
69186;BMP280;56298;49.246;9.410;2023-08-01T04:37:54;98101.66;;;18.09
69186;BMP280;56298;49.246;9.410;2023-08-01T04:40:19;98111.56;;;18.10
69186;BMP280;56298;49.246;9.410;2023-08-01T04:42:44;98100.81;;;18.12
69186;BMP280;56298;49.246;9.410;2023-08-01T04:45:10;98080.59;;;18.12
69186;BMP280;56298;49.246;9.410;2023-08-01T04:47:35;98077.59;;;18.06
69186;BMP280;56298;49.246;9.410;2023-08-01T04:50:00;98069.03;;;18.00
69186;BMP280;56298;49.246;9.410;2023-08-01T04:52:25;98069.38;;;18.03
69186;BMP280;56298;49.246;9.410;2023-08-01T04:54:51;98065.84;;;18.02
69186;BMP280;56298;49.246;9.410;2023-08-01T04:57:16;98071.84;;;17.84
69186;BMP280;56298;49.246;9.410;2023-08-01T04:59:41;98064.69;;;17.87
69186;BMP280;56298;49.246;9.410;2023-08-01T05:02:07;98064.31;;;17.84
69186;BMP280;56298;49.246;9.410;2023-08-01T05:04:32;98062.09;;;17.79
69186;BMP280;56298;49.246;9.410;2023-08-01T05:06:57;98052.81;;;17.86
69186;BMP280;56298;49.246;9.410;2023-08-01T05:09:22;98050.88;;;17.83
69186;BMP280;56298;49.246;9.410;2023-08-01T05:11:49;98051.47;;;17.91
69186;BMP280;56298;49.246;9.410;2023-08-01T05:14:14;98050.28;;;17.92
69186;BMP280;56298;49.246;9.410;2023-08-01T05:16:39;98050.28;;;17.92
69186;BMP280;56298;49.246;9.410;2023-08-01T05:19:05;98049.66;;;17.84
69186;BMP280;56298;49.246;9.410;2023-08-01T05:21:30;98054.25;;;17.91
69186;BMP280;56298;49.246;9.410;2023-08-01T05:23:55;98044.38;;;17.90
69186;BMP280;56298;49.246;9.410;2023-08-01T05:26:20;98041.72;;;17.86
69186;BMP280;56298;49.246;9.410;2023-08-01T05:28:46;98040.38;;;17.78
69186;BMP280;56298;49.246;9.410;2023-08-01T05:31:11;98053.22;;;17.84
69186;BMP280;56298;49.246;9.410;2023-08-01T05:33:36;98049.16;;;17.89
69186;BMP280;56298;49.246;9.410;2023-08-01T05:36:01;98064.47;;;17.94
69186;BMP280;56298;49.246;9.410;2023-08-01T05:38:27;98076.25;;;17.98
69186;BMP280;56298;49.246;9.410;2023-08-01T05:40:52;98075.38;;;18.01
69186;BMP280;56298;49.246;9.410;2023-08-01T05:43:17;98082.22;;;17.96
69186;BMP280;56298;49.246;9.410;2023-08-01T05:45:43;98084.41;;;17.89
69186;BMP280;56298;49.246;9.410;2023-08-01T05:48:08;98092.56;;;17.96
69186;BMP280;56298;49.246;9.410;2023-08-01T05:50:33;98084.66;;;17.94
69186;BMP280;56298;49.246;9.410;2023-08-01T05:52:58;98075.91;;;17.96
69186;BMP280;56298;49.246;9.410;2023-08-01T05:55:24;98080.25;;;17.97
69186;BMP280;56298;49.246;9.410;2023-08-01T05:57:49;98077.03;;;17.98
69186;BMP280;56298;49.246;9.410;2023-08-01T06:00:17;98081.25;;;18.03
69186;BMP280;56298;49.246;9.410;2023-08-01T06:02:44;98074.19;;;17.85
69186;BMP280;56298;49.246;9.410;2023-08-01T06:05:09;98071.97;;;17.80
69186;BMP280;56298;49.246;9.410;2023-08-01T06:07:34;98069.88;;;17.84
69186;BMP280;56298;49.246;9.410;2023-08-01T06:10:00;98056.81;;;17.85
69186;BMP280;56298;49.246;9.410;2023-08-01T06:12:25;98051.94;;;17.89
69186;BMP280;56298;49.246;9.410;2023-08-01T06:14:50;98056.25;;;17.90
69186;BMP280;56298;49.246;9.410;2023-08-01T06:17:16;98060.59;;;17.91
69186;BMP280;56298;49.246;9.410;2023-08-01T06:19:41;98079.66;;;17.89
69186;BMP280;56298;49.246;9.410;2023-08-01T06:22:06;98078.56;;;17.87
69186;BMP280;56298;49.246;9.410;2023-08-01T06:24:32;98090.03;;;17.72
69186;BMP280;56298;49.246;9.410;2023-08-01T06:26:57;98084.69;;;17.65
69186;BMP280;56298;49.246;9.410;2023-08-01T06:29:22;98085.81;;;17.51
69186;BMP280;56298;49.246;9.410;2023-08-01T06:31:49;98086.44;;;17.59
69186;BMP280;56298;49.246;9.410;2023-08-01T06:34:14;98084.00;;;17.61
69186;BMP280;56298;49.246;9.410;2023-08-01T06:36:39;98064.44;;;17.51
69186;BMP280;56298;49.246;9.410;2023-08-01T06:39:05;98074.81;;;17.47
69186;BMP280;56298;49.246;9.410;2023-08-01T06:41:30;98075.28;;;17.46
69186;BMP280;56298;49.246;9.410;2023-08-01T06:43:56;98074.13;;;17.43
69186;BMP280;56298;49.246;9.410;2023-08-01T06:46:21;98072.81;;;17.35
69186;BMP280;56298;49.246;9.410;2023-08-01T06:48:46;98072.81;;;17.35
69186;BMP280;56298;49.246;9.410;2023-08-01T06:51:13;98066.88;;;17.33
69186;BMP280;56298;49.246;9.410;2023-08-01T06:53:38;98054.59;;;17.34
69186;BMP280;56298;49.246;9.410;2023-08-01T06:56:04;98049.16;;;17.30
69186;BMP280;56298;49.246;9.410;2023-08-01T06:58:29;98052.47;;;17.25
69186;BMP280;56298;49.246;9.410;2023-08-01T07:00:54;98057.13;;;17.28
69186;BMP280;56298;49.246;9.410;2023-08-01T07:03:20;98059.56;;;17.26
69186;BMP280;56298;49.246;9.410;2023-08-01T07:05:45;98062.91;;;17.34
69186;BMP280;56298;49.246;9.410;2023-08-01T07:08:10;98063.81;;;17.31
69186;BMP280;56298;49.246;9.410;2023-08-01T07:10:35;98067.34;;;17.31
69186;BMP280;56298;49.246;9.410;2023-08-01T07:13:02;98061.56;;;17.25
69186;BMP280;56298;49.246;9.410;2023-08-01T07:15:31;98069.94;;;17.22
69186;BMP280;56298;49.246;9.410;2023-08-01T07:17:57;98069.09;;;17.25
69186;BMP280;56298;49.246;9.410;2023-08-01T07:20:22;98070.91;;;17.15
69186;BMP280;56298;49.246;9.410;2023-08-01T07:22:47;98064.06;;;17.20
69186;BMP280;56298;49.246;9.410;2023-08-01T07:25:12;98065.44;;;17.11
69186;BMP280;56298;49.246;9.410;2023-08-01T07:27:38;98056.03;;;17.09
69186;BMP280;56298;49.246;9.410;2023-08-01T07:30:04;98063.72;;;17.01
69186;BMP280;56298;49.246;9.410;2023-08-01T07:32:30;98052.31;;;16.99
69186;BMP280;56298;49.246;9.410;2023-08-01T07:34:55;98063.72;;;17.01
69186;BMP280;56298;49.246;9.410;2023-08-01T07:37:20;98053.09;;;17.00
69186;BMP280;56298;49.246;9.410;2023-08-01T07:39:46;98057.59;;;17.10
69186;BMP280;56298;49.246;9.410;2023-08-01T07:42:11;98059.31;;;17.04
69186;BMP280;56298;49.246;9.410;2023-08-01T07:44:36;98058.78;;;17.09
69186;BMP280;56298;49.246;9.410;2023-08-01T07:47:02;98060.09;;;17.21
69186;BMP280;56298;49.246;9.410;2023-08-01T07:49:27;98058.59;;;17.33
69186;BMP280;56298;49.246;9.410;2023-08-01T07:51:52;98059.78;;;17.32
69186;BMP280;56298;49.246;9.410;2023-08-01T07:54:17;98055.53;;;17.44
69186;BMP280;56298;49.246;9.410;2023-08-01T07:56:43;98050.09;;;17.40
69186;BMP280;56298;49.246;9.410;2023-08-01T07:59:09;98040.50;;;17.57
69186;BMP280;56298;49.246;9.410;2023-08-01T08:01:35;98037.84;;;17.54
69186;BMP280;56298;49.246;9.410;2023-08-01T08:04:00;98041.75;;;17.56
69186;BMP280;56298;49.246;9.410;2023-08-01T08:06:25;98042.03;;;17.46
69186;BMP280;56298;49.246;9.410;2023-08-01T08:08:51;98029.75;;;17.47
69186;BMP280;56298;49.246;9.410;2023-08-01T08:11:16;98037.72;;;17.57
69186;BMP280;56298;49.246;9.410;2023-08-01T08:13:42;98027.44;;;17.58
69186;BMP280;56298;49.246;9.410;2023-08-01T08:16:07;98036.00;;;17.64
69186;BMP280;56298;49.246;9.410;2023-08-01T08:18:32;98043.09;;;17.65
69186;BMP280;56298;49.246;9.410;2023-08-01T08:20:57;98043.88;;;17.65
69186;BMP280;56298;49.246;9.410;2023-08-01T08:23:23;98042.53;;;17.57
69186;BMP280;56298;49.246;9.410;2023-08-01T08:25:48;98048.09;;;17.40
69186;BMP280;56298;49.246;9.410;2023-08-01T08:28:14;98047.41;;;17.36
69186;BMP280;56298;49.246;9.410;2023-08-01T08:30:40;98040.56;;;17.41
69186;BMP280;56298;49.246;9.410;2023-08-01T08:33:05;98054.69;;;17.47
69186;BMP280;56298;49.246;9.410;2023-08-01T08:35:34;98048.25;;;17.50
69186;BMP280;56298;49.246;9.410;2023-08-01T08:38:01;98042.00;;;17.62
69186;BMP280;56298;49.246;9.410;2023-08-01T08:40:27;98044.41;;;17.60
69186;BMP280;56298;49.246;9.410;2023-08-01T08:42:53;98040.97;;;17.56
69186;BMP280;56298;49.246;9.410;2023-08-01T08:45:20;98036.00;;;17.64
69186;BMP280;56298;49.246;9.410;2023-08-01T08:47:49;98045.53;;;17.63
69186;BMP280;56298;49.246;9.410;2023-08-01T08:50:16;98042.97;;;17.68
69186;BMP280;56298;49.246;9.410;2023-08-01T08:52:42;98049.66;;;17.71
69186;BMP280;56298;49.246;9.410;2023-08-01T08:55:07;98069.84;;;17.71
69186;BMP280;56298;49.246;9.410;2023-08-01T08:57:33;98074.72;;;17.67
69186;BMP280;56298;49.246;9.410;2023-08-01T08:59:59;98071.75;;;17.75
69186;BMP280;56298;49.246;9.410;2023-08-01T09:02:28;98077.16;;;17.65
69186;BMP280;56298;49.246;9.410;2023-08-01T09:04:53;98062.25;;;17.59
69186;BMP280;56298;49.246;9.410;2023-08-01T09:07:22;98065.88;;;17.73
69186;BMP280;56298;49.246;9.410;2023-08-01T09:09:48;98067.41;;;18.03
69186;BMP280;56298;49.246;9.410;2023-08-01T09:12:14;98072.75;;;18.36
69186;BMP280;56298;49.246;9.410;2023-08-01T09:14:39;98079.53;;;18.61
69186;BMP280;56298;49.246;9.410;2023-08-01T09:17:06;98086.28;;;18.99
69186;BMP280;56298;49.246;9.410;2023-08-01T09:19:32;98089.34;;;19.01
69186;BMP280;56298;49.246;9.410;2023-08-01T09:21:58;98082.06;;;18.94
69186;BMP280;56298;49.246;9.410;2023-08-01T09:24:23;98086.28;;;18.99
69186;BMP280;56298;49.246;9.410;2023-08-01T09:26:49;98087.78;;;19.26
69186;BMP280;56298;49.246;9.410;2023-08-01T09:29:18;98072.94;;;19.29
69186;BMP280;56298;49.246;9.410;2023-08-01T09:31:45;98080.94;;;19.40
69186;BMP280;56298;49.246;9.410;2023-08-01T09:34:21;98080.25;;;19.71
69186;BMP280;56298;49.246;9.410;2023-08-01T09:36:47;98086.09;;;19.86
69186;BMP280;56298;49.246;9.410;2023-08-01T09:39:20;98076.75;;;20.02
69186;BMP280;56298;49.246;9.410;2023-08-01T09:41:46;98070.41;;;20.33
69186;BMP280;56298;49.246;9.410;2023-08-01T09:44:15;98077.59;;;20.62
69186;BMP280;56298;49.246;9.410;2023-08-01T09:46:41;98079.25;;;20.41
69186;BMP280;56298;49.246;9.410;2023-08-01T09:49:11;98079.75;;;20.58
69186;BMP280;56298;49.246;9.410;2023-08-01T09:51:47;98077.84;;;20.36
69186;BMP280;56298;49.246;9.410;2023-08-01T09:54:13;98082.81;;;20.41
69186;BMP280;56298;49.246;9.410;2023-08-01T09:56:40;98085.41;;;20.35
69186;BMP280;56298;49.246;9.410;2023-08-01T09:59:07;98090.53;;;20.37
69186;BMP280;56298;49.246;9.410;2023-08-01T10:01:33;98084.78;;;20.31
69186;BMP280;56298;49.246;9.410;2023-08-01T10:03:58;98086.78;;;20.31
69186;BMP280;56298;49.246;9.410;2023-08-01T10:06:28;98089.03;;;20.45
69186;BMP280;56298;49.246;9.410;2023-08-01T10:08:54;98090.34;;;20.31
69186;BMP280;56298;49.246;9.410;2023-08-01T10:11:20;98090.66;;;20.33
69186;BMP280;56298;49.246;9.410;2023-08-01T10:13:46;98085.16;;;20.52
69186;BMP280;56298;49.246;9.410;2023-08-01T10:16:12;98097.13;;;20.71
69186;BMP280;56298;49.246;9.410;2023-08-01T10:18:38;98091.72;;;20.77
69186;BMP280;56298;49.246;9.410;2023-08-01T10:21:05;98095.69;;;21.35
69186;BMP280;56298;49.246;9.410;2023-08-01T10:23:35;98089.31;;;21.35
69186;BMP280;56298;49.246;9.410;2023-08-01T10:26:02;98088.41;;;21.29
69186;BMP280;56298;49.246;9.410;2023-08-01T10:28:38;98082.34;;;21.67
69186;BMP280;56298;49.246;9.410;2023-08-01T10:31:15;98088.53;;;22.24
69186;BMP280;56298;49.246;9.410;2023-08-01T10:33:45;98089.25;;;22.92
69186;BMP280;56298;49.246;9.410;2023-08-01T10:36:18;98081.63;;;22.68
69186;BMP280;56298;49.246;9.410;2023-08-01T10:38:47;98078.09;;;22.43
69186;BMP280;56298;49.246;9.410;2023-08-01T10:41:39;98081.00;;;22.15
69186;BMP280;56298;49.246;9.410;2023-08-01T10:44:12;98092.19;;;22.06
69186;BMP280;56298;49.246;9.410;2023-08-01T10:49:12;98088.22;;;21.69
69186;BMP280;56298;49.246;9.410;2023-08-01T10:51:38;98086.84;;;21.55
69186;BMP280;56298;49.246;9.410;2023-08-01T10:54:03;98079.53;;;21.86
69186;BMP280;56298;49.246;9.410;2023-08-01T10:56:28;98078.53;;;21.98
69186;BMP280;56298;49.246;9.410;2023-08-01T10:58:57;98082.34;;;22.53
69186;BMP280;56298;49.246;9.410;2023-08-01T11:01:22;98079.47;;;22.96
69186;BMP280;56298;49.246;9.410;2023-08-01T11:03:47;98071.50;;;23.19
69186;BMP280;56298;49.246;9.410;2023-08-01T11:06:13;98070.00;;;23.33
69186;BMP280;56298;49.246;9.410;2023-08-01T11:08:39;98076.56;;;23.90
69186;BMP280;56298;49.246;9.410;2023-08-01T11:11:08;98060.44;;;24.56
69186;BMP280;56298;49.246;9.410;2023-08-01T11:13:35;98073.31;;;24.83
69186;BMP280;56298;49.246;9.410;2023-08-01T11:16:04;98071.47;;;25.27
69186;BMP280;56298;49.246;9.410;2023-08-01T11:18:40;98070.38;;;25.45
69186;BMP280;56298;49.246;9.410;2023-08-01T11:21:06;98071.97;;;24.79
69186;BMP280;56298;49.246;9.410;2023-08-01T11:23:31;98081.31;;;23.99
69186;BMP280;56298;49.246;9.410;2023-08-01T11:25:56;98086.00;;;23.17
69186;BMP280;56298;49.246;9.410;2023-08-01T11:28:22;98084.44;;;22.68
69186;BMP280;56298;49.246;9.410;2023-08-01T11:30:49;98093.31;;;22.33
69186;BMP280;56298;49.246;9.410;2023-08-01T11:33:23;98104.59;;;22.05
69186;BMP280;56298;49.246;9.410;2023-08-01T11:35:53;98111.50;;;21.57
69186;BMP280;56298;49.246;9.410;2023-08-01T11:38:22;98124.78;;;21.16
69186;BMP280;56298;49.246;9.410;2023-08-01T11:40:51;98124.22;;;21.49
69186;BMP280;56298;49.246;9.410;2023-08-01T11:43:16;98119.31;;;21.96
69186;BMP280;56298;49.246;9.410;2023-08-01T11:45:56;98125.34;;;22.04
69186;BMP280;56298;49.246;9.410;2023-08-01T11:48:24;98131.91;;;21.91
69186;BMP280;56298;49.246;9.410;2023-08-01T11:50:57;98123.63;;;22.15
69186;BMP280;56298;49.246;9.410;2023-08-01T11:53:23;98135.03;;;22.36
69186;BMP280;56298;49.246;9.410;2023-08-01T11:55:49;98130.47;;;22.57
69186;BMP280;56298;49.246;9.410;2023-08-01T11:58:33;98135.19;;;22.75
69186;BMP280;56298;49.246;9.410;2023-08-01T12:01:10;98133.28;;;23.06
69186;BMP280;56298;49.246;9.410;2023-08-01T12:06:16;98133.81;;;23.19
69186;BMP280;56298;49.246;9.410;2023-08-01T12:08:42;98127.13;;;23.41
69186;BMP280;56298;49.246;9.410;2023-08-01T12:11:22;98125.25;;;23.77
69186;BMP280;56298;49.246;9.410;2023-08-01T12:13:47;98117.81;;;23.89
69186;BMP280;56298;49.246;9.410;2023-08-01T12:16:13;98115.56;;;23.93
69186;BMP280;56298;49.246;9.410;2023-08-01T12:18:42;98126.84;;;24.14
69186;BMP280;56298;49.246;9.410;2023-08-01T12:21:09;98116.53;;;24.05
69186;BMP280;56298;49.246;9.410;2023-08-01T12:23:35;98129.94;;;24.16
69186;BMP280;56298;49.246;9.410;2023-08-01T12:26:01;98120.66;;;24.25
69186;BMP280;56298;49.246;9.410;2023-08-01T12:28:26;98134.75;;;24.31
69186;BMP280;56298;49.246;9.410;2023-08-01T12:30:51;98125.69;;;24.56
69186;BMP280;56298;49.246;9.410;2023-08-01T12:33:16;98112.13;;;24.91
69186;BMP280;56298;49.246;9.410;2023-08-01T12:35:42;98107.44;;;25.29
69186;BMP280;56298;49.246;9.410;2023-08-01T12:38:08;98133.75;;;25.31
69186;BMP280;56298;49.246;9.410;2023-08-01T12:40:33;98144.78;;;25.14
69186;BMP280;56298;49.246;9.410;2023-08-01T12:42:59;98141.19;;;25.35
69186;BMP280;56298;49.246;9.410;2023-08-01T12:45:24;98142.78;;;25.15
69186;BMP280;56298;49.246;9.410;2023-08-01T12:47:49;98149.22;;;25.68
69186;BMP280;56298;49.246;9.410;2023-08-01T12:50:15;98138.34;;;25.82
69186;BMP280;56298;49.246;9.410;2023-08-01T12:52:40;98135.53;;;25.55
69186;BMP280;56298;49.246;9.410;2023-08-01T12:55:06;98145.59;;;25.41
69186;BMP280;56298;49.246;9.410;2023-08-01T12:57:31;98146.31;;;24.95
69186;BMP280;56298;49.246;9.410;2023-08-01T12:59:56;98149.13;;;24.95
69186;BMP280;56298;49.246;9.410;2023-08-01T13:02:22;98149.63;;;24.93
69186;BMP280;56298;49.246;9.410;2023-08-01T13:04:47;98146.63;;;25.17
69186;BMP280;56298;49.246;9.410;2023-08-01T13:07:12;98137.50;;;25.23
69186;BMP280;56298;49.246;9.410;2023-08-01T13:09:38;98137.91;;;24.95
69186;BMP280;56298;49.246;9.410;2023-08-01T13:12:04;98150.06;;;25.07
69186;BMP280;56298;49.246;9.410;2023-08-01T13:14:31;98145.06;;;24.96
69186;BMP280;56298;49.246;9.410;2023-08-01T13:16:56;98142.31;;;25.22
69186;BMP280;56298;49.246;9.410;2023-08-01T13:19:21;98146.72;;;25.50
69186;BMP280;56298;49.246;9.410;2023-08-01T13:21:47;98155.19;;;25.55
69186;BMP280;56298;49.246;9.410;2023-08-01T13:24:12;98158.06;;;25.14
69186;BMP280;56298;49.246;9.410;2023-08-01T13:26:37;98166.41;;;25.08
69186;BMP280;56298;49.246;9.410;2023-08-01T13:29:03;98163.44;;;25.17
69186;BMP280;56298;49.246;9.410;2023-08-01T13:31:28;98162.09;;;25.33
69186;BMP280;56298;49.246;9.410;2023-08-01T13:33:54;98160.75;;;25.50
69186;BMP280;56298;49.246;9.410;2023-08-01T13:36:19;98172.78;;;25.56
69186;BMP280;56298;49.246;9.410;2023-08-01T13:38:44;98172.97;;;25.46
69186;BMP280;56298;49.246;9.410;2023-08-01T13:41:10;98168.34;;;25.70
69186;BMP280;56298;49.246;9.410;2023-08-01T13:43:35;98166.06;;;26.00
69186;BMP280;56298;49.246;9.410;2023-08-01T13:46:07;98176.69;;;25.90
69186;BMP280;56298;49.246;9.410;2023-08-01T13:48:32;98172.75;;;25.76
69186;BMP280;56298;49.246;9.410;2023-08-01T13:50:58;98173.47;;;25.24
69186;BMP280;56298;49.246;9.410;2023-08-01T13:53:24;98179.78;;;24.98
69186;BMP280;56298;49.246;9.410;2023-08-01T13:55:49;98183.22;;;24.87
69186;BMP280;56298;49.246;9.410;2023-08-01T13:58:14;98188.03;;;24.66
69186;BMP280;56298;49.246;9.410;2023-08-01T14:00:39;98187.13;;;24.39
69186;BMP280;56298;49.246;9.410;2023-08-01T14:03:05;98189.81;;;24.19
69186;BMP280;56298;49.246;9.410;2023-08-01T14:05:30;98186.94;;;24.13
69186;BMP280;56298;49.246;9.410;2023-08-01T14:07:55;98190.13;;;24.36